Aviation Digital Data Service (ADDS)

Output produced by METARs form (2015 UTC 01 August 2015)
found at http://aviationweather.gov/adds/metars/
 
KGON 011936Z 0120/0218 24012KT P6SM SCT060 SCT100 
     FM012300 26008KT P6SM FEW060 
     FM020100 32004KT P6SM SKC 
     FM020400 VRB03KT P6SM SKC 
     FM021500 21006KT P6SM SCT250